Time;durP1;ratioP1;P1;durP2;ratioP2;P2;SDS_P1;SDS_P2;PMS_P1;PMS_P2;Temp;Humidity;BMP_temperature;BMP_pressure;BME280_temperature;BME280_humidity;BME280_pressure;Samples;Min_cycle;Max_cycle;Signal;HPM_P1;HPM_P2
2023/03/25 00:02:04;;;;;;;3.83;1.30;;;11.20;99.90;;;;;;5003388;28;20220;-68
2023/03/25 00:04:30;;;;;;;1.33;1.07;;;11.20;99.90;;;;;;5002657;28;20429;-68
2023/03/25 00:06:56;;;;;;;1.53;0.90;;;10.70;99.90;;;;;;5002983;28;20583;-69
2023/03/25 00:09:22;;;;;;;1.20;1.00;;;10.70;99.90;;;;;;5003536;28;20722;-69
2023/03/25 00:11:51;;;;;;;3.93;0.90;;;10.70;99.90;;;;;;5003325;28;20459;-68
2023/03/25 00:14:16;;;;;;;1.00;0.60;;;10.60;99.90;;;;;;5003559;28;20631;-69
2023/03/25 00:16:47;;;;;;;2.83;0.83;;;10.60;99.90;;;;;;5003233;28;20418;-69
2023/03/25 00:19:14;;;;;;;1.67;0.63;;;10.50;99.90;;;;;;5003058;28;20194;-69
2023/03/25 00:21:43;;;;;;;0.90;0.60;;;10.30;99.90;;;;;;5002301;28;20406;-69
2023/03/25 00:24:15;;;;;;;2.20;0.80;;;10.40;99.90;;;;;;5002706;28;20416;-68
2023/03/25 00:26:41;;;;;;;0.90;0.70;;;10.50;99.90;;;;;;5002935;28;20418;-69
2023/03/25 00:29:10;;;;;;;1.17;0.80;;;10.30;99.90;;;;;;5002767;28;20734;-68
2023/03/25 00:31:35;;;;;;;0.90;0.60;;;10.40;99.90;;;;;;5002599;28;20782;-69
2023/03/25 00:34:01;;;;;;;1.13;1.03;;;10.20;99.90;;;;;;5002146;28;20415;-69
2023/03/25 00:36:27;;;;;;;2.73;0.83;;;10.30;99.90;;;;;;5002355;28;20214;-69
2023/03/25 00:38:52;;;;;;;1.63;0.60;;;10.10;99.90;;;;;;5001838;28;20255;-69
2023/03/25 00:41:24;;;;;;;1.33;0.60;;;10.10;99.90;;;;;;5002011;28;20489;-68
2023/03/25 00:43:58;;;;;;;0.80;0.50;;;10.10;99.90;;;;;;5003101;28;21067;-69
2023/03/25 00:46:26;;;;;;;0.87;0.80;;;10.30;99.90;;;;;;5003025;28;20435;-69
2023/03/25 00:48:52;;;;;;;0.90;0.70;;;10.30;99.90;;;;;;5003023;28;20463;-69
2023/03/25 00:51:20;;;;;;;1.57;0.70;;;10.20;99.90;;;;;;5002771;28;20413;-69
2023/03/25 00:53:51;;;;;;;3.33;0.90;;;10.30;99.90;;;;;;5041087;22;20490;-68
2023/03/25 00:56:17;;;;;;;1.63;0.97;;;10.20;99.90;;;;;;5003466;28;20407;-70
2023/03/25 00:58:43;;;;;;;2.80;0.80;;;10.20;99.90;;;;;;5004518;28;20418;-68
2023/03/25 01:01:22;;;;;;;2.00;0.90;;;10.00;99.90;;;;;;5005771;28;20631;-65
2023/03/25 01:03:48;;;;;;;3.00;1.17;;;10.10;99.90;;;;;;5007156;28;20191;-69
2023/03/25 01:06:15;;;;;;;2.70;1.50;;;9.90;99.90;;;;;;5007349;28;20549;-68
2023/03/25 01:08:42;;;;;;;2.90;1.00;;;10.00;99.90;;;;;;5006788;28;20412;-68
2023/03/25 01:11:24;;;;;;;2.23;1.10;;;10.00;99.90;;;;;;5006756;28;20565;-68
2023/03/25 01:13:50;;;;;;;1.77;0.80;;;9.90;99.90;;;;;;5006654;28;20799;-67
2023/03/25 01:16:16;;;;;;;3.60;0.90;;;9.80;99.90;;;;;;5006837;28;20893;-69
2023/03/25 01:18:41;;;;;;;1.63;0.80;;;9.80;99.90;;;;;;5006353;28;20173;-68
2023/03/25 01:21:07;;;;;;;4.60;0.90;;;9.90;99.90;;;;;;5006166;28;20255;-68
2023/03/25 01:23:34;;;;;;;3.53;0.80;;;9.80;99.90;;;;;;5006275;28;20211;-68
2023/03/25 01:26:00;;;;;;;3.13;1.23;;;9.90;99.90;;;;;;5006089;28;20575;-65
2023/03/25 01:28:29;;;;;;;1.13;0.80;;;9.80;99.90;;;;;;5004916;28;20423;-68
2023/03/25 01:31:03;;;;;;;6.17;1.20;;;9.90;99.90;;;;;;5006458;28;20799;-69
2023/03/25 01:33:29;;;;;;;1.80;0.90;;;9.90;99.90;;;;;;5006072;28;20972;-69
2023/03/25 01:35:55;;;;;;;1.00;0.90;;;10.10;99.90;;;;;;5006232;28;20512;-68
2023/03/25 01:38:21;;;;;;;1.93;0.80;;;10.00;99.90;;;;;;5006125;28;20490;-67
2023/03/25 01:40:47;;;;;;;1.83;1.20;;;10.00;99.90;;;;;;5005472;28;20194;-67
2023/03/25 01:43:14;;;;;;;4.13;1.33;;;9.90;99.90;;;;;;5006070;28;20886;-67
2023/03/25 01:45:39;;;;;;;3.00;0.90;;;10.00;99.90;;;;;;5006397;28;20414;-66
2023/03/25 01:48:14;;;;;;;2.50;1.00;;;10.20;99.90;;;;;;5006063;28;20409;-69
2023/03/25 01:50:43;;;;;;;9.50;1.47;;;10.20;99.90;;;;;;5004988;28;20588;-70
2023/03/25 01:53:10;;;;;;;1.47;0.73;;;10.10;99.90;;;;;;5005967;28;20544;-69
2023/03/25 01:55:36;;;;;;;1.10;0.90;;;10.10;99.90;;;;;;5005213;28;20454;-70
2023/03/25 01:58:09;;;;;;;2.93;1.13;;;10.20;99.90;;;;;;5005501;28;20684;-69
2023/03/25 02:00:36;;;;;;;4.23;1.00;;;10.10;99.90;;;;;;5005705;28;20768;-69
2023/03/25 02:03:02;;;;;;;2.40;1.23;;;10.20;99.90;;;;;;5005708;28;20521;-67
2023/03/25 02:06:04;;;;;;;1.73;0.70;;;9.90;99.90;;;;;;5004203;28;20418;-68
2023/03/25 02:08:32;;;;;;;7.63;1.20;;;10.00;99.90;;;;;;4989812;28;20424;-67
2023/03/25 02:10:58;;;;;;;2.10;1.00;;;10.00;99.90;;;;;;5003660;28;20859;-68
2023/03/25 02:13:24;;;;;;;1.80;0.77;;;10.00;99.90;;;;;;5005000;28;20519;-68
2023/03/25 02:16:07;;;;;;;1.50;0.70;;;10.10;99.90;;;;;;5006305;28;20555;-69
2023/03/25 02:18:50;;;;;;;2.33;1.20;;;10.20;99.90;;;;;;5005354;28;20410;-69
2023/03/25 02:22:10;;;;;;;2.23;1.03;;;10.10;99.90;;;;;;5005325;28;20435;-68
2023/03/25 02:24:44;;;;;;;2.23;0.77;;;10.10;99.90;;;;;;4969528;28;20468;-67
2023/03/25 02:27:26;;;;;;;1.33;0.93;;;10.00;99.90;;;;;;5003695;28;20421;-69
2023/03/25 02:30:10;;;;;;;1.70;0.93;;;10.10;99.90;;;;;;5005332;28;20463;-67
2023/03/25 02:33:00;;;;;;;1.77;1.10;;;10.10;99.90;;;;;;5003105;28;20424;-67
2023/03/25 02:35:43;;;;;;;4.73;0.90;;;10.20;99.90;;;;;;5004879;28;20505;-68
2023/03/25 02:38:26;;;;;;;2.73;1.10;;;10.10;99.90;;;;;;5004244;28;20423;-68
2023/03/25 02:41:01;;;;;;;1.50;1.00;;;9.90;99.90;;;;;;5004669;28;20395;-67
2023/03/25 02:43:49;;;;;;;2.83;1.07;;;10.00;99.90;;;;;;5004945;28;20434;-69
2023/03/25 02:46:17;;;;;;;4.70;1.30;;;10.10;99.90;;;;;;5005379;28;20551;-67
2023/03/25 02:49:00;;;;;;;1.90;1.20;;;10.00;99.90;;;;;;5005387;28;20477;-67
2023/03/25 02:51:32;;;;;;;2.40;1.00;;;10.00;99.90;;;;;;5004896;28;20849;-67
2023/03/25 02:54:05;;;;;;;2.57;0.87;;;9.80;99.90;;;;;;5003959;28;20453;-66
2023/03/25 02:56:31;;;;;;;1.90;0.70;;;9.70;99.90;;;;;;5002619;28;20412;-68
2023/03/25 02:58:59;;;;;;;2.97;1.00;;;9.80;99.90;;;;;;5003976;28;20824;-69
2023/03/25 03:01:25;;;;;;;2.30;1.00;;;9.60;99.90;;;;;;5004696;28;20868;-69
2023/03/25 03:03:53;;;;;;;2.20;1.00;;;9.70;99.90;;;;;;5004252;28;20463;-67
2023/03/25 03:06:19;;;;;;;1.73;0.90;;;9.80;99.90;;;;;;5003081;28;20421;-66
2023/03/25 03:08:48;;;;;;;3.17;0.90;;;9.90;99.90;;;;;;5004427;28;20451;-68
2023/03/25 03:11:23;;;;;;;2.83;0.90;;;10.10;99.90;;;;;;5004121;28;20416;-69
2023/03/25 03:14:14;;;;;;;1.43;0.80;;;10.20;99.90;;;;;;5004717;28;20436;-67
2023/03/25 03:16:59;;;;;;;1.00;0.70;;;10.30;99.90;;;;;;5004233;28;20773;-67
2023/03/25 03:19:36;;;;;;;1.63;0.93;;;10.30;99.90;;;;;;5004512;28;20399;-68
2023/03/25 03:22:17;;;;;;;2.83;1.07;;;10.00;99.90;;;;;;5003981;28;20452;-68
2023/03/25 03:24:47;;;;;;;4.27;1.10;;;10.00;99.90;;;;;;5004236;28;20820;-68
2023/03/25 03:27:32;;;;;;;3.33;1.00;;;9.90;99.90;;;;;;5003889;28;20438;-69
2023/03/25 03:30:14;;;;;;;1.50;0.83;;;9.80;99.90;;;;;;5003801;28;20458;-68
2023/03/25 03:33:02;;;;;;;2.80;1.00;;;9.80;99.90;;;;;;5003991;28;20429;-68
2023/03/25 03:35:37;;;;;;;1.70;0.97;;;10.00;99.90;;;;;;5004603;28;20441;-68
2023/03/25 03:38:11;;;;;;;2.23;0.80;;;10.00;99.90;;;;;;5002563;28;20418;-66
2023/03/25 03:40:39;;;;;;;1.70;0.73;;;9.90;99.90;;;;;;5002785;28;20426;-69
2023/03/25 03:43:12;;;;;;;2.70;0.60;;;9.80;99.90;;;;;;5002244;28;20514;-69
2023/03/25 03:45:44;;;;;;;3.23;0.70;;;9.70;99.90;;;;;;5004111;28;20448;-68
2023/03/25 03:48:21;;;;;;;0.93;0.60;;;9.80;99.90;;;;;;5004148;28;20450;-69
2023/03/25 03:50:55;;;;;;;1.03;0.50;;;9.60;99.90;;;;;;5003334;28;20465;-68
2023/03/25 03:53:32;;;;;;;1.13;0.60;;;9.40;99.90;;;;;;5003650;28;21057;-68
2023/03/25 03:56:07;;;;;;;1.13;0.50;;;9.30;99.90;;;;;;5003444;28;20411;-68
2023/03/25 03:58:41;;;;;;;1.00;0.50;;;9.20;99.90;;;;;;5003629;28;20833;-67
2023/03/25 04:01:10;;;;;;;0.80;0.50;;;9.30;99.90;;;;;;5003985;28;20838;-67
2023/03/25 04:03:52;;;;;;;1.20;0.60;;;9.30;99.90;;;;;;5003918;28;20436;-68
2023/03/25 04:06:25;;;;;;;0.83;0.50;;;9.30;99.90;;;;;;5001225;28;20430;-68
2023/03/25 04:08:59;;;;;;;0.70;0.50;;;9.30;99.90;;;;;;5003543;28;21346;-67
2023/03/25 04:11:36;;;;;;;1.50;0.70;;;9.40;99.90;;;;;;5003965;28;20426;-69
2023/03/25 04:14:04;;;;;;;1.80;0.83;;;9.40;99.90;;;;;;5003747;28;20528;-67
2023/03/25 04:16:31;;;;;;;1.27;0.60;;;9.30;99.90;;;;;;5003342;28;20410;-67
2023/03/25 04:18:57;;;;;;;1.00;0.70;;;9.20;99.90;;;;;;5003626;28;20412;-69
2023/03/25 04:21:24;;;;;;;1.33;0.60;;;9.20;99.90;;;;;;5003127;28;20781;-68
2023/03/25 04:23:50;;;;;;;1.23;0.80;;;9.20;99.90;;;;;;5003426;28;20850;-66
2023/03/25 04:26:16;;;;;;;1.20;0.63;;;9.30;99.90;;;;;;5003802;28;20425;-68
2023/03/25 04:28:43;;;;;;;1.50;0.63;;;9.20;99.90;;;;;;5003550;28;20621;-67
2023/03/25 04:31:16;;;;;;;1.63;0.97;;;9.30;99.90;;;;;;5003664;28;20411;-68
2023/03/25 04:33:47;;;;;;;1.20;0.73;;;9.20;99.90;;;;;;5004453;28;20741;-67
2023/03/25 04:36:14;;;;;;;1.10;0.57;;;9.10;99.90;;;;;;5005386;28;20792;-68
2023/03/25 04:38:40;;;;;;;0.80;0.60;;;9.20;99.90;;;;;;5007363;28;20907;-69
2023/03/25 04:41:06;;;;;;;2.50;0.70;;;9.20;99.90;;;;;;5006060;28;20446;-68
2023/03/25 04:43:32;;;;;;;1.10;0.70;;;9.40;99.90;;;;;;5006749;28;20462;-66
2023/03/25 04:45:59;;;;;;;1.97;0.93;;;9.40;99.90;;;;;;5007063;28;20442;-68
2023/03/25 04:48:29;;;;;;;1.53;0.70;;;9.10;99.90;;;;;;5007101;28;20230;-68
2023/03/25 04:51:00;;;;;;;1.30;0.70;;;9.10;99.90;;;;;;5007203;28;20448;-68
2023/03/25 04:53:27;;;;;;;2.20;1.00;;;9.20;99.90;;;;;;5004862;28;20598;-68
2023/03/25 04:55:53;;;;;;;2.20;0.97;;;9.30;99.90;;;;;;5006594;28;20776;-68
2023/03/25 04:58:19;;;;;;;2.70;0.80;;;9.20;99.90;;;;;;5006926;28;20915;-69
2023/03/25 05:00:48;;;;;;;1.00;0.70;;;9.20;99.90;;;;;;5006961;28;20480;-68
2023/03/25 05:03:14;;;;;;;2.40;0.70;;;9.00;99.90;;;;;;5007065;28;20516;-68
2023/03/25 05:05:40;;;;;;;2.30;0.83;;;9.00;99.90;;;;;;5007425;28;20783;-67
2023/03/25 05:08:06;;;;;;;1.47;0.80;;;9.10;99.90;;;;;;5007154;28;20426;-68
2023/03/25 05:10:34;;;;;;;3.30;0.77;;;9.00;99.90;;;;;;5007202;28;20827;-69
2023/03/25 05:13:03;;;;;;;1.90;1.00;;;9.00;99.90;;;;;;5005226;28;20964;-69
2023/03/25 05:15:34;;;;;;;2.80;1.17;;;9.00;99.90;;;;;;5006512;28;20843;-68
2023/03/25 05:18:00;;;;;;;4.10;1.17;;;8.90;99.90;;;;;;5005167;28;20474;-67
2023/03/25 05:20:26;;;;;;;3.73;1.23;;;9.10;99.90;;;;;;5006774;28;21355;-67
2023/03/25 05:22:52;;;;;;;1.47;0.80;;;9.00;99.90;;;;;;5006062;28;20418;-67
2023/03/25 05:25:21;;;;;;;2.27;0.80;;;9.10;99.90;;;;;;5006035;28;20179;-67
2023/03/25 05:27:47;;;;;;;2.90;0.93;;;9.00;99.90;;;;;;5006376;28;20476;-67
2023/03/25 05:30:14;;;;;;;1.57;0.90;;;9.10;99.90;;;;;;5004993;28;20843;-68
2023/03/25 05:32:40;;;;;;;1.87;1.20;;;9.20;99.90;;;;;;5005943;28;20420;-68
2023/03/25 05:35:06;;;;;;;1.57;0.80;;;9.30;99.90;;;;;;5006282;28;20780;-68
2023/03/25 05:37:32;;;;;;;2.13;0.90;;;9.40;99.90;;;;;;5004894;28;20227;-67
2023/03/25 05:39:58;;;;;;;2.77;1.10;;;9.50;99.90;;;;;;5006598;28;20421;-67
2023/03/25 05:42:23;;;;;;;2.03;1.27;;;9.60;99.90;;;;;;5005208;28;20188;-68
2023/03/25 05:44:50;;;;;;;3.73;2.00;;;9.60;99.90;;;;;;5005988;28;20217;-69
2023/03/25 05:47:23;;;;;;;3.00;1.23;;;9.60;99.90;;;;;;5005696;28;20690;-67
2023/03/25 05:49:50;;;;;;;3.70;1.27;;;9.60;99.90;;;;;;5005877;28;20463;-68
2023/03/25 05:52:17;;;;;;;4.93;1.20;;;9.80;99.90;;;;;;5005620;28;20409;-68
2023/03/25 05:54:45;;;;;;;4.07;1.43;;;9.80;99.90;;;;;;5005643;28;20461;-65
2023/03/25 05:57:12;;;;;;;1.20;0.93;;;9.70;99.90;;;;;;5005417;28;20499;-68
2023/03/25 05:59:37;;;;;;;2.47;0.90;;;9.70;99.90;;;;;;5005636;28;20939;-67
2023/03/25 06:02:11;;;;;;;3.40;1.13;;;9.60;99.90;;;;;;5006028;28;20673;-70
2023/03/25 06:04:36;;;;;;;19.83;9.37;;;9.60;99.90;;;;;;5005985;28;20211;-68
2023/03/25 06:07:08;;;;;;;4.67;1.67;;;9.60;99.90;;;;;;5005933;28;20434;-69
2023/03/25 06:09:34;;;;;;;5.73;2.17;;;9.50;99.90;;;;;;5004278;28;20724;-68
2023/03/25 06:12:00;;;;;;;7.90;2.07;;;9.70;99.90;;;;;;5004956;28;20422;-68
2023/03/25 06:14:26;;;;;;;3.67;1.43;;;9.80;99.90;;;;;;5005026;28;20447;-66
2023/03/25 06:16:52;;;;;;;2.27;1.47;;;9.90;99.90;;;;;;5005373;28;20434;-68
2023/03/25 06:19:17;;;;;;;1.93;1.00;;;9.80;99.90;;;;;;5005358;28;20253;-69
2023/03/25 06:21:43;;;;;;;4.63;1.60;;;9.60;99.90;;;;;;5005934;28;20546;-69
2023/03/25 06:24:08;;;;;;;3.07;1.27;;;9.70;99.90;;;;;;5005432;28;20215;-67
2023/03/25 06:26:34;;;;;;;2.20;1.10;;;9.70;99.90;;;;;;5004859;28;20314;-68
2023/03/25 06:29:01;;;;;;;4.63;2.17;;;9.60;99.90;;;;;;5005053;28;20207;-68
2023/03/25 06:31:26;;;;;;;2.03;1.00;;;9.70;99.90;;;;;;5005021;28;20655;-67
2023/03/25 06:33:54;;;;;;;3.17;1.10;;;9.80;99.90;;;;;;5005316;28;20446;-67
2023/03/25 06:36:20;;;;;;;2.77;1.20;;;9.90;99.90;;;;;;5005032;28;20179;-68
2023/03/25 06:38:47;;;;;;;3.40;1.40;;;9.80;99.90;;;;;;5005043;28;20416;-70
2023/03/25 06:41:14;;;;;;;1.97;1.27;;;9.80;99.90;;;;;;5004393;28;20802;-69
2023/03/25 06:43:40;;;;;;;1.50;0.90;;;9.70;99.90;;;;;;5004665;28;21202;-68
2023/03/25 06:46:06;;;;;;;3.90;1.50;;;9.70;99.90;;;;;;5005157;28;20434;-69
2023/03/25 06:48:31;;;;;;;1.90;1.07;;;9.70;99.90;;;;;;5004643;28;20630;-69
2023/03/25 06:50:57;;;;;;;4.07;2.77;;;9.80;99.90;;;;;;5004689;28;20222;-68
2023/03/25 06:55:57;;;;;;;3.33;1.20;;;9.90;99.90;;;;;;5021513;28;20213;-69
2023/03/25 06:58:23;;;;;;;3.67;1.23;;;9.80;99.90;;;;;;5023358;28;20422;-70
2023/03/25 07:00:55;;;;;;;2.93;1.10;;;9.90;99.90;;;;;;5005373;28;20562;-69
2023/03/25 07:03:21;;;;;;;2.83;1.13;;;10.10;99.90;;;;;;5022853;28;20175;-67
2023/03/25 07:05:47;;;;;;;2.63;1.20;;;10.20;99.90;;;;;;5022446;28;20444;-69
2023/03/25 07:08:14;;;;;;;1.60;1.00;;;9.90;99.90;;;;;;5021900;28;20266;-69
2023/03/25 07:10:39;;;;;;;4.63;1.20;;;10.10;99.90;;;;;;5022795;28;20988;-70
2023/03/25 07:13:05;;;;;;;4.80;1.10;;;10.10;99.90;;;;;;5023339;28;20904;-69
2023/03/25 07:15:30;;;;;;;2.07;1.00;;;10.10;99.90;;;;;;5023488;28;20241;-69
2023/03/25 07:17:56;;;;;;;2.20;0.97;;;10.30;99.90;;;;;;5023508;28;20197;-69
2023/03/25 07:20:21;;;;;;;2.80;1.27;;;10.20;99.90;;;;;;5023657;28;20279;-69
2023/03/25 07:22:47;;;;;;;2.40;1.00;;;10.20;99.90;;;;;;5024066;28;20248;-69
2023/03/25 07:25:13;;;;;;;1.53;1.00;;;10.40;99.90;;;;;;5023223;28;20213;-70
2023/03/25 07:27:39;;;;;;;5.03;1.30;;;10.20;99.90;;;;;;5023176;28;20185;-69
2023/03/25 07:30:06;;;;;;;2.50;1.10;;;10.20;99.90;;;;;;5023136;28;20197;-70
2023/03/25 07:32:31;;;;;;;2.80;0.90;;;10.20;99.90;;;;;;5023598;28;20406;-69
2023/03/25 07:34:57;;;;;;;3.50;1.27;;;10.50;99.90;;;;;;5022932;28;20498;-67
2023/03/25 07:37:22;;;;;;;1.77;1.07;;;10.70;99.90;;;;;;5023399;28;20180;-67
2023/03/25 07:39:48;;;;;;;2.70;0.80;;;10.70;99.90;;;;;;5022904;28;20274;-70
2023/03/25 07:42:14;;;;;;;1.40;1.13;;;10.70;99.90;;;;;;5021791;28;20221;-68
2023/03/25 07:44:39;;;;;;;2.40;0.90;;;10.80;99.90;;;;;;5023930;28;20210;-67
2023/03/25 07:47:05;;;;;;;1.87;0.93;;;10.90;99.90;;;;;;5023239;28;20794;-68
2023/03/25 07:49:30;;;;;;;1.73;0.90;;;10.90;99.90;;;;;;5023871;28;20662;-68
2023/03/25 07:51:56;;;;;;;2.50;1.30;;;11.00;99.90;;;;;;5022681;28;20561;-68
2023/03/25 07:54:23;;;;;;;1.53;0.80;;;11.00;99.90;;;;;;5023254;28;20251;-67
2023/03/25 07:56:49;;;;;;;1.67;0.90;;;11.10;99.90;;;;;;5023540;28;20259;-69
2023/03/25 07:59:15;;;;;;;2.30;0.90;;;10.90;99.90;;;;;;5021811;28;20463;-69
2023/03/25 08:01:41;;;;;;;2.20;0.87;;;11.00;99.90;;;;;;5023447;28;20487;-69
2023/03/25 08:04:06;;;;;;;2.20;0.90;;;10.90;99.90;;;;;;5023249;28;20199;-69
2023/03/25 08:06:32;;;;;;;2.10;0.77;;;11.20;99.90;;;;;;5022021;28;20183;-70
2023/03/25 08:08:57;;;;;;;1.77;0.70;;;11.10;99.90;;;;;;5026372;28;20435;-70
2023/03/25 08:11:23;;;;;;;1.87;0.70;;;11.20;99.90;;;;;;5027257;28;20175;-69
2023/03/25 08:13:48;;;;;;;1.47;0.80;;;11.40;99.90;;;;;;5027046;28;20707;-69
2023/03/25 08:16:14;;;;;;;3.63;0.87;;;11.40;99.90;;;;;;5027654;28;20717;-69
2023/03/25 08:18:43;;;;;;;1.50;0.70;;;11.60;99.90;;;;;;5028128;28;20681;-69
2023/03/25 08:21:10;;;;;;;3.43;0.80;;;11.70;99.90;;;;;;5028885;28;21016;-68
2023/03/25 08:23:36;;;;;;;1.67;0.90;;;11.50;99.90;;;;;;5027057;28;20407;-70
2023/03/25 08:26:04;;;;;;;2.70;1.20;;;11.40;99.90;;;;;;5008897;28;20428;-70
2023/03/25 08:28:30;;;;;;;1.60;1.00;;;11.30;99.90;;;;;;5026944;28;20429;-71
2023/03/25 08:30:56;;;;;;;3.23;1.07;;;11.40;99.90;;;;;;5026667;28;20446;-70
2023/03/25 08:33:26;;;;;;;1.47;0.80;;;11.60;99.90;;;;;;5026405;28;20470;-70
2023/03/25 08:35:51;;;;;;;2.43;0.90;;;12.00;99.90;;;;;;5028140;28;20416;-72
2023/03/25 08:38:17;;;;;;;1.00;0.73;;;12.30;99.90;;;;;;5026730;28;20787;-69
2023/03/25 08:40:43;;;;;;;1.37;0.73;;;12.10;99.90;;;;;;5026565;28;20184;-73
2023/03/25 08:43:09;;;;;;;1.10;0.60;;;11.90;99.90;;;;;;5026696;28;20263;-71
2023/03/25 08:45:35;;;;;;;0.90;0.60;;;11.80;99.90;;;;;;5026469;28;20211;-70
2023/03/25 08:48:01;;;;;;;1.33;0.70;;;11.80;99.90;;;;;;5026044;28;20666;-69
2023/03/25 08:50:27;;;;;;;1.77;0.70;;;11.30;99.90;;;;;;5024772;28;20832;-69
2023/03/25 08:52:56;;;;;;;0.80;0.60;;;11.00;99.90;;;;;;5022774;28;20409;-70
2023/03/25 08:55:22;;;;;;;1.20;0.60;;;11.00;99.90;;;;;;5025933;28;20453;-69
2023/03/25 08:57:47;;;;;;;0.80;0.50;;;11.20;99.90;;;;;;5026905;28;20421;-69
2023/03/25 09:00:13;;;;;;;1.20;0.80;;;11.00;99.90;;;;;;5008663;28;20422;-69
2023/03/25 09:02:40;;;;;;;0.70;0.60;;;11.20;99.90;;;;;;5026030;28;20268;-69
2023/03/25 09:05:07;;;;;;;1.10;0.60;;;11.10;99.90;;;;;;5025971;28;20209;-69
2023/03/25 09:07:34;;;;;;;1.20;0.60;;;11.00;99.90;;;;;;5026022;28;20428;-69
2023/03/25 09:10:00;;;;;;;1.63;0.70;;;11.20;99.90;;;;;;5025548;28;20604;-69
2023/03/25 09:12:26;;;;;;;1.50;0.90;;;11.20;99.90;;;;;;5025963;28;20998;-68
2023/03/25 09:14:51;;;;;;;1.93;0.90;;;11.40;99.90;;;;;;5026406;28;20282;-71
2023/03/25 09:17:17;;;;;;;2.20;0.83;;;11.20;99.90;;;;;;5025741;28;20561;-70
2023/03/25 09:19:43;;;;;;;1.43;0.80;;;11.00;99.90;;;;;;5025613;28;20649;-69
2023/03/25 09:22:08;;;;;;;1.93;0.93;;;10.80;99.90;;;;;;5026248;28;20191;-70
2023/03/25 09:24:34;;;;;;;1.33;0.70;;;10.60;99.90;;;;;;5028602;28;20841;-70
2023/03/25 09:27:01;;;;;;;1.87;0.70;;;10.80;99.90;;;;;;5025863;28;20734;-70
2023/03/25 09:29:27;;;;;;;1.97;0.73;;;10.90;99.90;;;;;;5025557;28;20198;-70
2023/03/25 09:31:53;;;;;;;1.43;0.50;;;11.20;99.90;;;;;;5025804;28;20928;-70
2023/03/25 09:34:19;;;;;;;2.10;0.70;;;11.30;99.90;;;;;;5007310;28;20488;-68
2023/03/25 09:36:45;;;;;;;1.63;0.87;;;11.00;99.90;;;;;;5025678;28;20176;-69
2023/03/25 09:39:10;;;;;;;1.67;1.00;;;11.50;99.90;;;;;;5025375;28;20815;-69
2023/03/25 09:42:03;;;;;;;3.90;1.10;;;12.10;99.90;;;;;;5025453;28;20621;-70
2023/03/25 09:44:45;;;;;;;1.37;0.70;;;12.20;99.90;;;;;;5007678;28;20203;-70
2023/03/25 09:47:12;;;;;;;2.43;0.67;;;12.50;99.90;;;;;;5025311;28;20416;-71
2023/03/25 09:49:44;;;;;;;1.20;0.70;;;12.70;99.90;;;;;;5024833;28;20456;-71
2023/03/25 09:52:17;;;;;;;1.33;0.80;;;12.90;99.90;;;;;;5025396;28;20465;-70
2023/03/25 09:54:57;;;;;;;0.90;0.60;;;12.70;99.90;;;;;;5025201;28;20469;-71
2023/03/25 09:57:30;;;;;;;1.20;1.10;;;12.40;99.90;;;;;;5025062;28;20432;-70
2023/03/25 09:59:57;;;;;;;2.77;1.17;;;12.40;99.90;;;;;;5024945;28;20414;-71
2023/03/25 10:02:47;;;;;;;1.70;1.37;;;12.60;99.90;;;;;;5025516;28;20424;-70
2023/03/25 10:05:49;;;;;;;1.87;0.97;;;12.90;99.90;;;;;;5025401;28;20967;-71
2023/03/25 10:08:40;;;;;;;1.10;0.63;;;13.10;99.90;;;;;;4992198;28;20464;-69
2023/03/25 10:11:21;;;;;;;1.40;0.73;;;13.00;99.90;;;;;;5024815;28;20514;-70
2023/03/25 10:13:55;;;;;;;2.03;0.83;;;12.70;99.90;;;;;;5025026;28;20430;-69
2023/03/25 10:16:42;;;;;;;1.33;0.70;;;12.50;99.90;;;;;;5024644;28;20408;-69
2023/03/25 10:19:29;;;;;;;1.70;0.90;;;12.40;99.90;;;;;;5024320;28;20840;-69
2023/03/25 10:22:14;;;;;;;2.80;0.70;;;12.30;99.90;;;;;;5024904;28;20902;-69
2023/03/25 10:24:48;;;;;;;1.57;1.00;;;12.20;99.90;;;;;;5024441;28;20441;-69
2023/03/25 10:27:37;;;;;;;1.40;0.80;;;12.20;99.90;;;;;;5024603;28;20411;-69
2023/03/25 10:30:08;;;;;;;1.20;0.83;;;12.50;99.90;;;;;;5024547;28;20446;-70
2023/03/25 10:32:44;;;;;;;2.00;1.13;;;12.70;99.90;;;;;;5023392;28;20425;-69
2023/03/25 10:35:38;;;;;;;3.40;1.17;;;12.80;99.90;;;;;;5006772;28;20456;-70
2023/03/25 10:38:20;;;;;;;1.57;0.80;;;12.90;99.90;;;;;;5020666;28;20464;-70
2023/03/25 10:40:48;;;;;;;1.27;0.90;;;13.00;99.90;;;;;;5022935;28;20421;-70
2023/03/25 10:43:30;;;;;;;1.60;0.60;;;12.80;99.90;;;;;;5023819;28;20471;-69
2023/03/25 10:46:06;;;;;;;3.10;0.77;;;12.90;99.90;;;;;;5024247;28;20426;-69
2023/03/25 10:48:32;;;;;;;2.00;0.83;;;13.20;99.90;;;;;;5022570;28;20720;-69
2023/03/25 10:51:11;;;;;;;3.00;0.80;;;13.50;99.90;;;;;;5024000;28;20980;-69
2023/03/25 10:53:39;;;;;;;1.30;0.67;;;13.40;99.90;;;;;;5024139;28;20428;-72
2023/03/25 10:56:16;;;;;;;3.07;1.03;;;13.20;99.90;;;;;;5023843;28;20430;-69
2023/03/25 10:58:45;;;;;;;2.20;0.80;;;13.20;99.90;;;;;;5023162;28;20715;-69
2023/03/25 11:01:14;;;;;;;0.80;0.70;;;13.00;99.90;;;;;;5023686;28;20429;-69
2023/03/25 11:03:41;;;;;;;2.03;0.90;;;13.30;99.90;;;;;;5023646;28;20798;-70
2023/03/25 11:06:29;;;;;;;1.30;1.00;;;13.60;99.90;;;;;;5024086;28;20460;-70
2023/03/25 11:09:17;;;;;;;1.00;0.70;;;13.50;99.90;;;;;;5024096;28;20422;-70
2023/03/25 11:11:43;;;;;;;1.13;0.83;;;13.70;99.90;;;;;;5008429;28;20511;-70
2023/03/25 11:14:10;;;;;;;2.30;0.83;;;13.60;99.90;;;;;;5023596;28;20467;-72
2023/03/25 11:17:08;;;;;;;1.87;0.90;;;13.40;99.90;;;;;;5023824;28;20904;-71
2023/03/25 11:19:47;;;;;;;1.37;0.87;;;13.50;99.90;;;;;;5020339;28;20428;-71
2023/03/25 11:22:18;;;;;;;1.73;0.70;;;14.00;99.90;;;;;;5023874;28;20405;-71
2023/03/25 11:24:47;;;;;;;2.00;0.70;;;13.80;99.90;;;;;;5023736;28;20429;-72
2023/03/25 11:27:23;;;;;;;1.90;0.90;;;14.10;99.90;;;;;;5023228;28;20508;-71
2023/03/25 11:30:14;;;;;;;1.43;0.60;;;15.10;99.90;;;;;;5024090;28;21160;-71
2023/03/25 11:32:40;;;;;;;1.33;0.70;;;15.60;99.90;;;;;;5022073;28;20426;-71
2023/03/25 11:35:26;;;;;;;1.13;0.70;;;16.30;99.90;;;;;;5023196;28;20784;-71
2023/03/25 11:37:58;;;;;;;1.30;1.00;;;16.70;99.10;;;;;;5022088;28;20525;-72
2023/03/25 11:40:26;;;;;;;6.70;1.43;;;16.30;99.90;;;;;;5023300;28;20868;-72
2023/03/25 11:42:55;;;;;;;1.90;0.63;;;16.50;99.90;;;;;;5022900;28;20425;-71
2023/03/25 11:45:34;;;;;;;2.30;0.90;;;16.90;98.40;;;;;;5023288;28;20951;-71
2023/03/25 11:48:14;;;;;;;1.60;0.80;;;17.70;98.20;;;;;;5023587;28;20406;-72
2023/03/25 11:50:51;;;;;;;1.70;1.10;;;17.90;96.00;;;;;;5023365;28;21006;-72
2023/03/25 11:53:18;;;;;;;1.60;1.10;;;16.80;97.60;;;;;;5022847;28;20410;-71
2023/03/25 11:55:55;;;;;;;1.93;0.97;;;17.30;97.10;;;;;;5022806;28;20463;-72
2023/03/25 11:58:27;;;;;;;1.40;1.03;;;18.20;96.70;;;;;;5023653;28;20986;-73
2023/03/25 12:01:01;;;;;;;1.93;0.93;;;17.00;95.90;;;;;;5023109;28;20417;-73
2023/03/25 12:03:27;;;;;;;2.10;0.77;;;17.50;97.20;;;;;;5023563;28;20406;-72
2023/03/25 12:05:58;;;;;;;1.53;0.90;;;16.50;96.50;;;;;;5023554;28;20807;-72
2023/03/25 12:08:30;;;;;;;1.43;1.27;;;15.40;98.70;;;;;;5022897;28;20472;-72
2023/03/25 12:11:10;;;;;;;2.00;1.00;;;15.60;99.20;;;;;;5022954;28;20520;-73
2023/03/25 12:13:44;;;;;;;1.43;0.67;;;16.50;97.40;;;;;;5023321;28;20417;-71
2023/03/25 12:16:29;;;;;;;5.37;1.17;;;17.10;96.60;;;;;;5023334;28;20409;-71
2023/03/25 12:19:14;;;;;;;2.17;0.77;;;17.20;96.20;;;;;;5005656;28;20429;-71
2023/03/25 12:21:54;;;;;;;2.80;1.20;;;17.30;95.90;;;;;;5022857;28;20493;-71
2023/03/25 12:24:32;;;;;;;1.73;0.67;;;16.90;96.00;;;;;;5003856;28;20516;-71
2023/03/25 12:27:18;;;;;;;1.80;0.80;;;17.20;95.60;;;;;;5022707;28;20410;-71
2023/03/25 12:29:50;;;;;;;2.30;0.80;;;18.30;95.20;;;;;;5022748;28;20445;-71
2023/03/25 12:32:38;;;;;;;1.30;0.90;;;18.60;93.10;;;;;;5022031;28;20429;-72
2023/03/25 12:35:36;;;;;;;3.53;0.87;;;19.10;93.00;;;;;;5022677;28;20434;-72
2023/03/25 12:38:16;;;;;;;1.10;0.60;;;18.20;92.10;;;;;;4983662;28;20422;-71
2023/03/25 12:41:00;;;;;;;1.93;1.10;;;16.50;94.90;;;;;;5022901;28;20711;-70
2023/03/25 12:43:59;;;;;;;2.00;1.00;;;15.60;96.00;;;;;;5022482;28;20406;-70
2023/03/25 12:46:44;;;;;;;3.90;0.97;;;15.40;97.00;;;;;;5021874;28;20457;-71
2023/03/25 12:49:46;;;;;;;2.93;0.80;;;15.00;97.90;;;;;;5022525;28;20408;-71
2023/03/25 12:52:18;;;;;;;3.13;1.20;;;14.20;99.70;;;;;;5023085;28;20432;-70
2023/03/25 12:55:10;;;;;;;3.23;1.00;;;13.30;99.90;;;;;;5005509;28;20474;-70
2023/03/25 12:58:06;;;;;;;1.37;1.00;;;13.00;99.90;;;;;;5008272;28;20495;-71
2023/03/25 13:00:45;;;;;;;2.23;0.70;;;12.90;99.90;;;;;;5026549;28;20421;-72
2023/03/25 13:03:27;;;;;;;1.90;1.13;;;14.70;99.90;;;;;;5026455;28;20420;-73
2023/03/25 13:06:11;;;;;;;3.33;1.17;;;17.00;99.90;;;;;;5025601;28;20467;-73
2023/03/25 13:08:55;;;;;;;1.87;1.10;;;18.40;99.90;;;;;;5024692;28;20892;-73
2023/03/25 13:11:30;;;;;;;2.03;0.80;;;18.80;98.20;;;;;;5050883;22;20576;-71
2023/03/25 13:13:59;;;;;;;2.60;0.80;;;18.20;96.80;;;;;;5025792;28;20831;-70
2023/03/25 13:16:30;;;;;;;1.13;0.77;;;18.60;96.80;;;;;;5014531;28;20509;-70